This is the latest recevied weather packets stored in our database for station/object IN3MWE-10. If no packets are shown the sender has not sent any weather packets the latest 1 day(s).
| Time | Temp. | Humidity | Pressure | Rain* | Wind** | Luminosity | Snow |
|---|---|---|---|---|---|---|---|
| 1778073620 | 12.78° C | 90% | 974.9 hPa | - | - | - | - |
| 1778068219 | 22.78° C | 45% | 973.7 hPa | - | - | - | - |
| 1778067319 | 22.78° C | 47% | 974 hPa | - | - | - | - |
| 1778066419 | 19.44° C | 57% | 974.3 hPa | - | - | - | - |
| 1778063718 | 17.22° C | 63% | 974.4 hPa | - | - | - | - |
| 1778061018 | 18.33° C | 60% | 974.6 hPa | - | - | - | - |
| 1778060118 | 17.78° C | 60% | 974.7 hPa | - | - | - | - |
| 1778059218 | 17.78° C | 67% | 974.9 hPa | - | - | - | - |
| 1778055617 | 16.11° C | 75% | 975.3 hPa | - | - | - | - |
| 1778054717 | 15° C | 74% | 975.4 hPa | - | - | - | - |
| 1778053817 | 15.56° C | 78% | 975.4 hPa | - | - | - | - |
| 1778049316 | 15° C | 79% | 975.6 hPa | - | - | - | - |
| 1778048415 | 15° C | 82% | 975.7 hPa | - | - | - | - |
| 1778047515 | 13.89° C | 85% | 975.7 hPa | - | - | - | - |
| 1778043914 | 12.78° C | 88% | 975.4 hPa | - | - | - | - |
| 1778043014 | 12.78° C | 89% | 975.3 hPa | - | - | - | - |
| 1778042114 | 12.78° C | 90% | 975.6 hPa | - | - | - | - |
| 1778041214 | 12.22° C | 90% | 975.6 hPa | - | - | - | - |
| 1778040314 | 12.78° C | 89% | 975.7 hPa | - | - | - | - |
| 1778036713 | 12.78° C | 89% | 976 hPa | - | - | - | - |
| 1778034927 | 13.33° C | 90% | 975.7 hPa | - | - | - | - |
| 1778034027 | 12.78° C | 90% | 975.8 hPa | - | - | - | - |
| 1778033127 | 13.33° C | 90% | 976.3 hPa | - | - | - | - |
| 1778032227 | 12.78° C | 90% | 976.5 hPa | - | - | - | - |
| 1778031327 | 13.33° C | 90% | 976.5 hPa | - | - | - | - |
* Rain since midnight (hover to see other rain measurements)
** Current wind speed in m/s (hover to see current wind gust speed)